KZR215 UACC-LTAI
Flight info
| Callsign | KZR215 |
|---|---|
| Flight time | N/A |
| Altitude | 36000 |
| Route | VETUB7G VETUB P574 OGANU N55 MASAV/K0846F380 N161 GASBI/N0454F380 N161 LEYLA T916 SUBUT N996 PEMAN N161 INDUR UB374 ERZ UA4 SIV UA285 SELVI/N0451F390 UA285 MUT/N0452F380 UR55 KONAK |
| Aircraft | A20N/M-SDE2E3FGHIRWXY/LB1 |
Departure
| Time | 2026-04-24 13:46 |
|---|---|
| Airport | Nursultan Nazarbayev International Airport (UACC) |
Arrival
| Time | N/A |
|---|---|
| Airport | Antalya International Airport (LTAI) |
| Time | Latitude | Longitude | Altitude | Speed | Heading |
|---|---|---|---|---|---|
| 2026-04-24 13:44 | 51.03434 | 71.48199 | 1173 ft | 0 kts | 96° |
| 2026-04-24 13:44 | 51.03433 | 71.48202 | 1173 ft | 1 kts | 96° |
| 2026-04-24 13:44 | 51.03431 | 71.48229 | 1173 ft | 3 kts | 100° |
| 2026-04-24 13:44 | 51.03413 | 71.48286 | 1173 ft | 8 kts | 126° |
| 2026-04-24 13:45 | 51.03355 | 71.48322 | 1173 ft | 9 kts | 200° |
| 2026-04-24 13:45 | 51.03302 | 71.48251 | 1173 ft | 12 kts | 224° |
| 2026-04-24 13:45 | 51.03073 | 71.47890 | 1173 ft | 79 kts | 224° |
| 2026-04-24 13:45 | 51.02542 | 71.47057 | 1173 ft | 134 kts | 225° |
| 2026-04-24 13:46 | 51.01757 | 71.45824 | 1188 ft | 178 kts | 226° |
| 2026-04-24 13:46 | 51.00861 | 71.44413 | 1687 ft | 182 kts | 226° |
| 2026-04-24 13:46 | 50.99983 | 71.43014 | 2379 ft | 180 kts | 226° |
| 2026-04-24 13:46 | 50.99132 | 71.41611 | 3053 ft | 179 kts | 225° |
| 2026-04-24 13:47 | 50.98235 | 71.40165 | 3428 ft | 193 kts | 224° |
| 2026-04-24 13:47 | 50.97241 | 71.38617 | 3775 ft | 209 kts | 224° |
| 2026-04-24 13:47 | 50.96204 | 71.36877 | 4062 ft | 230 kts | 236° |
| 2026-04-24 13:47 | 50.95689 | 71.34396 | 4404 ft | 252 kts | 268° |
| 2026-04-24 13:48 | 50.96096 | 71.31635 | 4972 ft | 265 kts | 290° |
| 2026-04-24 13:48 | 50.96807 | 71.28937 | 5743 ft | 267 kts | 288° |
| 2026-04-24 13:48 | 50.97475 | 71.26211 | 6483 ft | 269 kts | 287° |
| 2026-04-24 13:48 | 50.97937 | 71.23399 | 7186 ft | 266 kts | 267° |
| 2026-04-24 13:49 | 50.97766 | 71.20509 | 7932 ft | 264 kts | 257° |
| 2026-04-24 13:49 | 50.97434 | 71.17686 | 8642 ft | 265 kts | 256° |
| 2026-04-24 13:49 | 50.97096 | 71.14817 | 9330 ft | 268 kts | 257° |
| 2026-04-24 13:49 | 50.96773 | 71.11904 | 10012 ft | 270 kts | 257° |
| 2026-04-24 13:50 | 50.96465 | 71.08970 | 10539 ft | 277 kts | 258° |
| 2026-04-24 13:50 | 50.96151 | 71.05885 | 10829 ft | 293 kts | 258° |
| 2026-04-24 13:50 | 50.95825 | 71.02612 | 11109 ft | 309 kts | 259° |
| 2026-04-24 13:50 | 50.95489 | 70.99195 | 11393 ft | 323 kts | 259° |
| 2026-04-24 13:51 | 50.95141 | 70.95623 | 11892 ft | 329 kts | 259° |
| 2026-04-24 13:51 | 50.94795 | 70.92075 | 12515 ft | 332 kts | 259° |
| 2026-04-24 13:51 | 50.94441 | 70.88454 | 13165 ft | 333 kts | 259° |
| 2026-04-24 13:51 | 50.94085 | 70.84827 | 13751 ft | 336 kts | 259° |
| 2026-04-24 13:52 | 50.93843 | 70.82380 | 14129 ft | 338 kts | 259° |
| 2026-04-24 13:52 | 50.93115 | 70.77581 | 14871 ft | 340 kts | 248° |
| 2026-04-24 13:52 | 50.92113 | 70.74188 | 15433 ft | 341 kts | 238° |
| 2026-04-24 13:52 | 50.90810 | 70.71056 | 15992 ft | 343 kts | 234° |
| 2026-04-24 13:53 | 50.89447 | 70.67989 | 16519 ft | 347 kts | 234° |
| 2026-04-24 13:53 | 50.88054 | 70.64875 | 17050 ft | 349 kts | 234° |
| 2026-04-24 13:53 | 50.86653 | 70.61741 | 17561 ft | 353 kts | 234° |
| 2026-04-24 13:53 | 50.85226 | 70.58550 | 18064 ft | 356 kts | 234° |
| 2026-04-24 13:54 | 50.83800 | 70.55361 | 18552 ft | 359 kts | 234° |
| 2026-04-24 13:54 | 50.82350 | 70.52121 | 19038 ft | 362 kts | 234° |
| 2026-04-24 13:54 | 50.80909 | 70.48903 | 19500 ft | 365 kts | 234° |
| 2026-04-24 13:54 | 50.79446 | 70.45634 | 19942 ft | 369 kts | 234° |
| 2026-04-24 13:55 | 50.77962 | 70.42325 | 20382 ft | 372 kts | 234° |
| 2026-04-24 13:55 | 50.76451 | 70.38959 | 20833 ft | 375 kts | 234° |
| 2026-04-24 13:55 | 50.74943 | 70.35605 | 21271 ft | 379 kts | 234° |
| 2026-04-24 13:55 | 50.73413 | 70.32205 | 21709 ft | 382 kts | 234° |
| 2026-04-24 13:56 | 50.71885 | 70.28816 | 22144 ft | 385 kts | 234° |
| 2026-04-24 13:56 | 50.70340 | 70.25349 | 22565 ft | 388 kts | 236° |
| 2026-04-24 13:56 | 50.68946 | 70.21697 | 22975 ft | 392 kts | 241° |
| 2026-04-24 13:56 | 50.67768 | 70.17851 | 23374 ft | 395 kts | 246° |
| 2026-04-24 13:57 | 50.66769 | 70.13756 | 23783 ft | 399 kts | 249° |
| 2026-04-24 13:57 | 50.65837 | 70.09677 | 24167 ft | 402 kts | 250° |
| 2026-04-24 13:57 | 50.64891 | 70.05507 | 24562 ft | 405 kts | 250° |
| 2026-04-24 13:57 | 50.63949 | 70.01368 | 24908 ft | 408 kts | 250° |
| 2026-04-24 13:58 | 50.62983 | 69.97140 | 25166 ft | 414 kts | 250° |
| 2026-04-24 13:58 | 50.61996 | 69.92843 | 25528 ft | 416 kts | 250° |
| 2026-04-24 13:58 | 50.61019 | 69.88601 | 25900 ft | 418 kts | 250° |
| 2026-04-24 13:58 | 50.60033 | 69.84325 | 26242 ft | 420 kts | 250° |
| 2026-04-24 13:59 | 50.59365 | 69.81439 | 26469 ft | 421 kts | 250° |
| 2026-04-24 13:59 | 50.58035 | 69.75697 | 26904 ft | 424 kts | 250° |
| 2026-04-24 13:59 | 50.57011 | 69.71291 | 27219 ft | 426 kts | 250° |
| 2026-04-24 13:59 | 50.56003 | 69.66962 | 27512 ft | 428 kts | 250° |
| 2026-04-24 14:00 | 50.54974 | 69.62547 | 27786 ft | 430 kts | 250° |
| 2026-04-24 14:00 | 50.53942 | 69.58137 | 28056 ft | 432 kts | 250° |
| 2026-04-24 14:00 | 50.52905 | 69.53710 | 28360 ft | 433 kts | 250° |
| 2026-04-24 14:00 | 50.51867 | 69.49290 | 28743 ft | 432 kts | 250° |
| 2026-04-24 14:01 | 50.50832 | 69.44894 | 29127 ft | 430 kts | 251° |
| 2026-04-24 14:01 | 50.49807 | 69.40549 | 29481 ft | 429 kts | 251° |
| 2026-04-24 14:01 | 50.48768 | 69.36151 | 29828 ft | 428 kts | 251° |
| 2026-04-24 14:01 | 50.47737 | 69.31799 | 30149 ft | 427 kts | 250° |
| 2026-04-24 14:02 | 50.46718 | 69.27508 | 30464 ft | 426 kts | 250° |
| 2026-04-24 14:02 | 50.45679 | 69.23135 | 30773 ft | 425 kts | 250° |
| 2026-04-24 14:02 | 50.44656 | 69.18837 | 31057 ft | 424 kts | 250° |
| 2026-04-24 14:02 | 50.43628 | 69.14527 | 31334 ft | 423 kts | 250° |
| 2026-04-24 14:03 | 50.42599 | 69.10220 | 31597 ft | 422 kts | 250° |
| 2026-04-24 14:03 | 50.41582 | 69.05978 | 31851 ft | 421 kts | 250° |
| 2026-04-24 14:03 | 50.40550 | 69.01678 | 32097 ft | 420 kts | 250° |
| 2026-04-24 14:03 | 50.39533 | 68.97458 | 32326 ft | 419 kts | 250° |
| 2026-04-24 14:04 | 50.38496 | 68.93153 | 32553 ft | 419 kts | 250° |
| 2026-04-24 14:04 | 50.37471 | 68.88917 | 32767 ft | 418 kts | 250° |
| 2026-04-24 14:04 | 50.36442 | 68.84665 | 32994 ft | 417 kts | 250° |
| 2026-04-24 14:04 | 50.35423 | 68.80463 | 33206 ft | 417 kts | 250° |
| 2026-04-24 14:05 | 50.34403 | 68.76266 | 33417 ft | 416 kts | 250° |
| 2026-04-24 14:05 | 50.33371 | 68.72029 | 33618 ft | 415 kts | 250° |
| 2026-04-24 14:05 | 50.32346 | 68.67828 | 33821 ft | 414 kts | 250° |
| 2026-04-24 14:05 | 50.31324 | 68.63649 | 34021 ft | 413 kts | 250° |
| 2026-04-24 14:06 | 50.30300 | 68.59465 | 34200 ft | 412 kts | 250° |
| 2026-04-24 14:06 | 50.29283 | 68.55325 | 34381 ft | 412 kts | 250° |
| 2026-04-24 14:06 | 50.28265 | 68.51183 | 34573 ft | 411 kts | 250° |
| 2026-04-24 14:06 | 50.27241 | 68.47027 | 34767 ft | 409 kts | 250° |
| 2026-04-24 14:07 | 50.26217 | 68.42879 | 34945 ft | 408 kts | 250° |
| 2026-04-24 14:07 | 50.25200 | 68.38767 | 35077 ft | 407 kts | 250° |
| 2026-04-24 14:07 | 50.23175 | 68.30604 | 35272 ft | 407 kts | 249° |
| 2026-04-24 14:08 | 50.21302 | 68.22334 | 35460 ft | 405 kts | 252° |
| 2026-04-24 14:08 | 50.19500 | 68.14022 | 35614 ft | 405 kts | 252° |
| 2026-04-24 14:09 | 50.17699 | 68.05749 | 35772 ft | 405 kts | 252° |
| 2026-04-24 14:09 | 50.15884 | 67.97449 | 35887 ft | 405 kts | 252° |
| 2026-04-24 14:10 | 50.14071 | 67.89187 | 35954 ft | 405 kts | 252° |
| 2026-04-24 14:10 | 50.12251 | 67.80930 | 35957 ft | 405 kts | 252° |
| 2026-04-24 14:11 | 50.10420 | 67.72660 | 35960 ft | 404 kts | 252° |
| 2026-04-24 14:12 | 50.07669 | 67.60290 | 35977 ft | 405 kts | 252° |
| 2026-04-24 14:12 | 50.05829 | 67.52060 | 35973 ft | 404 kts | 252° |
| 2026-04-24 14:13 | 50.03979 | 67.43814 | 35978 ft | 404 kts | 252° |
| 2026-04-24 14:13 | 50.02128 | 67.35599 | 35961 ft | 405 kts | 252° |
| 2026-04-24 14:14 | 50.00276 | 67.27409 | 35979 ft | 405 kts | 251° |
| 2026-04-24 14:14 | 49.97472 | 67.15082 | 35968 ft | 404 kts | 251° |
| 2026-04-24 14:15 | 49.95349 | 67.07065 | 35958 ft | 404 kts | 247° |
| 2026-04-24 14:15 | 49.93087 | 66.99059 | 35959 ft | 404 kts | 248° |
| 2026-04-24 14:16 | 49.90842 | 66.91136 | 35967 ft | 404 kts | 248° |
| 2026-04-24 14:17 | 49.87436 | 66.79166 | 35958 ft | 405 kts | 248° |
| 2026-04-24 14:17 | 49.84031 | 66.67265 | 35971 ft | 404 kts | 248° |
| 2026-04-24 14:18 | 49.81771 | 66.59399 | 35959 ft | 403 kts | 247° |
| 2026-04-24 14:18 | 49.79488 | 66.51478 | 35956 ft | 404 kts | 248° |
| 2026-04-24 14:19 | 49.77196 | 66.43557 | 35955 ft | 404 kts | 247° |
| 2026-04-24 14:19 | 49.74904 | 66.35664 | 35945 ft | 403 kts | 247° |
| 2026-04-24 14:20 | 49.72643 | 66.27752 | 35947 ft | 403 kts | 248° |
| 2026-04-24 14:20 | 49.70420 | 66.19824 | 35951 ft | 403 kts | 248° |
| 2026-04-24 14:21 | 49.68200 | 66.11951 | 35950 ft | 403 kts | 248° |
| 2026-04-24 14:21 | 49.65969 | 66.04077 | 35953 ft | 402 kts | 248° |
| 2026-04-24 14:22 | 49.63716 | 65.96153 | 35930 ft | 402 kts | 248° |
| 2026-04-24 14:23 | 49.60361 | 65.84409 | 35937 ft | 401 kts | 247° |
| 2026-04-24 14:23 | 49.58108 | 65.76557 | 35943 ft | 401 kts | 248° |
| 2026-04-24 14:24 | 49.55861 | 65.68752 | 35939 ft | 400 kts | 248° |
| 2026-04-24 14:24 | 49.53612 | 65.60963 | 35923 ft | 400 kts | 248° |
| 2026-04-24 14:25 | 49.51739 | 65.54492 | 35926 ft | 400 kts | 248° |
| 2026-04-24 14:25 | 49.49091 | 65.45380 | 35931 ft | 398 kts | 248° |
| 2026-04-24 14:26 | 49.46838 | 65.37650 | 35927 ft | 398 kts | 248° |
| 2026-04-24 14:26 | 49.44588 | 65.29959 | 35931 ft | 398 kts | 247° |
| 2026-04-24 14:27 | 49.42314 | 65.22212 | 35928 ft | 398 kts | 247° |
| 2026-04-24 14:27 | 49.40054 | 65.14530 | 35925 ft | 396 kts | 247° |
| 2026-04-24 14:28 | 49.37790 | 65.06873 | 35923 ft | 396 kts | 247° |
| 2026-04-24 14:28 | 49.35512 | 64.99185 | 35915 ft | 396 kts | 247° |
| 2026-04-24 14:29 | 49.33198 | 64.91602 | 35916 ft | 396 kts | 245° |
| 2026-04-24 14:29 | 49.30776 | 64.84042 | 35920 ft | 396 kts | 245° |
| 2026-04-24 14:30 | 49.28753 | 64.77744 | 35921 ft | 395 kts | 245° |
| 2026-04-24 14:30 | 49.25943 | 64.68996 | 35912 ft | 395 kts | 246° |
| 2026-04-24 14:31 | 49.23525 | 64.61483 | 35915 ft | 394 kts | 246° |
| 2026-04-24 14:31 | 49.21108 | 64.53989 | 35911 ft | 394 kts | 246° |
| 2026-04-24 14:32 | 49.18679 | 64.46485 | 35912 ft | 395 kts | 246° |
| 2026-04-24 14:32 | 49.16247 | 64.38989 | 35912 ft | 395 kts | 246° |
| 2026-04-24 14:33 | 49.13811 | 64.31512 | 35904 ft | 395 kts | 245° |
| 2026-04-24 14:33 | 49.11373 | 64.24046 | 35902 ft | 395 kts | 245° |
| 2026-04-24 14:34 | 49.08931 | 64.16591 | 35894 ft | 394 kts | 245° |
| 2026-04-24 14:34 | 49.06477 | 64.09119 | 35887 ft | 394 kts | 245° |
| 2026-04-24 14:35 | 49.04027 | 64.01677 | 35886 ft | 394 kts | 245° |
| 2026-04-24 14:35 | 49.01577 | 63.94263 | 35886 ft | 393 kts | 245° |
| 2026-04-24 14:36 | 48.99124 | 63.86856 | 35886 ft | 393 kts | 245° |
| 2026-04-24 14:36 | 48.96685 | 63.79514 | 35886 ft | 392 kts | 245° |
| 2026-04-24 14:37 | 48.94231 | 63.72156 | 35882 ft | 391 kts | 245° |
| 2026-04-24 14:37 | 48.91771 | 63.64798 | 35882 ft | 391 kts | 245° |
| 2026-04-24 14:38 | 48.89304 | 63.57442 | 35881 ft | 390 kts | 245° |
| 2026-04-24 14:38 | 48.87021 | 63.50068 | 35876 ft | 389 kts | 248° |
| 2026-04-24 14:39 | 48.84825 | 63.42548 | 35877 ft | 388 kts | 248° |
| 2026-04-24 14:39 | 48.82645 | 63.35109 | 35881 ft | 388 kts | 248° |
| 2026-04-24 14:40 | 48.80458 | 63.27667 | 35875 ft | 388 kts | 247° |
| 2026-04-24 14:40 | 48.78266 | 63.20225 | 35874 ft | 387 kts | 247° |
| 2026-04-24 14:41 | 48.76089 | 63.12860 | 35872 ft | 387 kts | 247° |
| 2026-04-24 14:41 | 48.73892 | 63.05448 | 35874 ft | 386 kts | 247° |
| 2026-04-24 14:42 | 48.72060 | 62.99284 | 35868 ft | 385 kts | 246° |
| 2026-04-24 14:42 | 48.69505 | 62.90716 | 35865 ft | 384 kts | 246° |
| 2026-04-24 14:43 | 48.67319 | 62.83415 | 35866 ft | 384 kts | 246° |
| 2026-04-24 14:43 | 48.65105 | 62.76040 | 35861 ft | 384 kts | 246° |
| 2026-04-24 14:44 | 48.62910 | 62.68754 | 35861 ft | 384 kts | 246° |
| 2026-04-24 14:44 | 48.60580 | 62.61522 | 35855 ft | 385 kts | 245° |
| 2026-04-24 14:45 | 48.58176 | 62.54298 | 35846 ft | 385 kts | 244° |
| 2026-04-24 14:45 | 48.55799 | 62.47151 | 35843 ft | 384 kts | 244° |
| 2026-04-24 14:46 | 48.53394 | 62.39924 | 35844 ft | 385 kts | 244° |
| 2026-04-24 14:46 | 48.51013 | 62.32789 | 35840 ft | 385 kts | 244° |
| 2026-04-24 14:47 | 48.48999 | 62.26763 | 35843 ft | 385 kts | 244° |
| 2026-04-24 14:47 | 48.46203 | 62.18414 | 35843 ft | 384 kts | 244° |
| 2026-04-24 14:48 | 48.43799 | 62.11260 | 35841 ft | 384 kts | 244° |
| 2026-04-24 14:48 | 48.41396 | 62.04129 | 35844 ft | 385 kts | 244° |
| 2026-04-24 14:49 | 48.38971 | 61.96955 | 35845 ft | 385 kts | 244° |
| 2026-04-24 14:49 | 48.36555 | 61.89823 | 35842 ft | 385 kts | 243° |
| 2026-04-24 14:50 | 48.34119 | 61.82656 | 35848 ft | 385 kts | 243° |
| 2026-04-24 14:50 | 48.31698 | 61.75555 | 35845 ft | 385 kts | 243° |
| 2026-04-24 14:51 | 48.29251 | 61.68399 | 35845 ft | 384 kts | 243° |
| 2026-04-24 14:51 | 48.26819 | 61.61295 | 35844 ft | 384 kts | 243° |
| 2026-04-24 14:52 | 48.24388 | 61.54219 | 35843 ft | 384 kts | 243° |
| 2026-04-24 14:52 | 48.21952 | 61.47150 | 35843 ft | 383 kts | 243° |
| 2026-04-24 14:53 | 48.19519 | 61.40112 | 35841 ft | 382 kts | 243° |
| 2026-04-24 14:53 | 48.17074 | 61.33056 | 35843 ft | 382 kts | 243° |
| 2026-04-24 14:54 | 48.14634 | 61.26034 | 35838 ft | 381 kts | 243° |
| 2026-04-24 14:54 | 48.12187 | 61.19007 | 35839 ft | 382 kts | 243° |
| 2026-04-24 14:55 | 48.10158 | 61.13195 | 35835 ft | 381 kts | 243° |
| 2026-04-24 14:55 | 48.07576 | 61.05819 | 35839 ft | 381 kts | 243° |
| 2026-04-24 14:56 | 48.06533 | 61.02845 | 35836 ft | 381 kts | 243° |
| 2026-04-24 14:57 | 48.05542 | 61.00021 | 35836 ft | 380 kts | 242° |
| 2026-04-24 14:57 | 48.04303 | 60.96494 | 35837 ft | 380 kts | 242° |
| 2026-04-24 14:58 | 48.01844 | 60.89518 | 35836 ft | 379 kts | 242° |
| 2026-04-24 14:58 | 47.99397 | 60.82593 | 35834 ft | 378 kts | 242° |
| 2026-04-24 14:59 | 47.96947 | 60.75676 | 35835 ft | 378 kts | 242° |
| 2026-04-24 14:59 | 47.94503 | 60.68794 | 35832 ft | 378 kts | 242° |
| 2026-04-24 15:00 | 47.92034 | 60.61862 | 35827 ft | 378 kts | 242° |
| 2026-04-24 15:00 | 47.89574 | 60.54971 | 35822 ft | 378 kts | 242° |
| 2026-04-24 15:01 | 47.87105 | 60.48074 | 35816 ft | 377 kts | 242° |
| 2026-04-24 15:01 | 47.84652 | 60.41236 | 35818 ft | 377 kts | 242° |
| 2026-04-24 15:02 | 47.82172 | 60.34348 | 35825 ft | 376 kts | 241° |
| 2026-04-24 15:02 | 47.79700 | 60.27502 | 35824 ft | 376 kts | 241° |
| 2026-04-24 15:03 | 47.77654 | 60.21845 | 35825 ft | 375 kts | 241° |
| 2026-04-24 15:03 | 47.74771 | 60.13897 | 35823 ft | 374 kts | 241° |
| 2026-04-24 15:04 | 47.72326 | 60.07162 | 35821 ft | 373 kts | 241° |
| 2026-04-24 15:04 | 47.69859 | 60.00394 | 35818 ft | 373 kts | 241° |
| 2026-04-24 15:05 | 47.67376 | 59.93602 | 35820 ft | 373 kts | 241° |
| 2026-04-24 15:05 | 47.64909 | 59.86871 | 35816 ft | 372 kts | 241° |
| 2026-04-24 15:06 | 47.62434 | 59.80135 | 35817 ft | 372 kts | 241° |
| 2026-04-24 15:06 | 47.59962 | 59.73425 | 35814 ft | 372 kts | 241° |
| 2026-04-24 15:07 | 47.57489 | 59.66726 | 35816 ft | 373 kts | 241° |
| 2026-04-24 15:07 | 47.55000 | 59.60007 | 35809 ft | 374 kts | 241° |
| 2026-04-24 15:08 | 47.52517 | 59.53317 | 35798 ft | 373 kts | 241° |
| 2026-04-24 15:08 | 47.50025 | 59.46622 | 35802 ft | 373 kts | 241° |
| 2026-04-24 15:09 | 47.47523 | 59.39913 | 35803 ft | 373 kts | 241° |
| 2026-04-24 15:09 | 47.45026 | 59.33237 | 35801 ft | 372 kts | 240° |
| 2026-04-24 15:10 | 47.42513 | 59.26534 | 35791 ft | 372 kts | 240° |
| 2026-04-24 15:10 | 47.40010 | 59.19877 | 35780 ft | 372 kts | 240° |
| 2026-04-24 15:11 | 47.37505 | 59.13230 | 35780 ft | 372 kts | 240° |
| 2026-04-24 15:11 | 47.34989 | 59.06571 | 35773 ft | 372 kts | 240° |
| 2026-04-24 15:12 | 47.32484 | 58.99955 | 35772 ft | 371 kts | 240° |
| 2026-04-24 15:12 | 47.28722 | 58.90049 | 35780 ft | 371 kts | 240° |
| 2026-04-24 15:13 | 47.26209 | 58.83453 | 35776 ft | 371 kts | 240° |
| 2026-04-24 15:13 | 47.23683 | 58.76833 | 35780 ft | 371 kts | 240° |
| 2026-04-24 15:14 | 47.21155 | 58.70234 | 35776 ft | 371 kts | 240° |
| 2026-04-24 15:14 | 47.18620 | 58.63633 | 35774 ft | 371 kts | 240° |
| 2026-04-24 15:15 | 47.16098 | 58.57074 | 35773 ft | 371 kts | 240° |
| 2026-04-24 15:15 | 47.13560 | 58.50499 | 35763 ft | 371 kts | 240° |
| 2026-04-24 15:16 | 47.11028 | 58.43948 | 35762 ft | 371 kts | 240° |
| 2026-04-24 15:16 | 47.08484 | 58.37387 | 35767 ft | 371 kts | 240° |
| 2026-04-24 15:17 | 47.05947 | 58.30853 | 35766 ft | 371 kts | 239° |
| 2026-04-24 15:17 | 47.03405 | 58.24323 | 35771 ft | 370 kts | 239° |
| 2026-04-24 15:18 | 47.00848 | 58.17777 | 35767 ft | 371 kts | 239° |
| 2026-04-24 15:18 | 46.98296 | 58.11254 | 35768 ft | 370 kts | 239° |
| 2026-04-24 15:19 | 46.95727 | 58.04707 | 35766 ft | 372 kts | 239° |
| 2026-04-24 15:19 | 46.93158 | 57.98177 | 35766 ft | 372 kts | 239° |
| 2026-04-24 15:20 | 46.90585 | 57.91648 | 35762 ft | 371 kts | 239° |
| 2026-04-24 15:20 | 46.88441 | 57.86219 | 35761 ft | 371 kts | 239° |
| 2026-04-24 15:21 | 46.85433 | 57.78625 | 35761 ft | 370 kts | 239° |
| 2026-04-24 15:21 | 46.83051 | 57.72625 | 35762 ft | 369 kts | 239° |
| 2026-04-24 15:22 | 46.80450 | 57.66090 | 35763 ft | 369 kts | 239° |
| 2026-04-24 15:23 | 46.76576 | 57.56382 | 35766 ft | 369 kts | 239° |
| 2026-04-24 15:23 | 46.72709 | 57.46730 | 35763 ft | 369 kts | 239° |
| 2026-04-24 15:25 | 46.66672 | 57.31727 | 35753 ft | 369 kts | 238° |
| 2026-04-24 15:26 | 46.59760 | 57.14646 | 35752 ft | 369 kts | 239° |
| 2026-04-24 15:27 | 46.51925 | 56.95474 | 35753 ft | 369 kts | 237° |
| 2026-04-24 15:29 | 46.41949 | 56.78691 | 35757 ft | 370 kts | 223° |
| 2026-04-24 15:31 | 46.28921 | 56.62513 | 35759 ft | 370 kts | 223° |
| 2026-04-24 15:33 | 46.13285 | 56.43272 | 35756 ft | 370 kts | 223° |
| 2026-04-24 15:34 | 46.02855 | 56.30525 | 35760 ft | 370 kts | 222° |
| 2026-04-24 15:35 | 45.93697 | 56.19384 | 35765 ft | 370 kts | 222° |
| 2026-04-24 15:36 | 45.89112 | 56.13829 | 35765 ft | 371 kts | 223° |
| 2026-04-24 15:36 | 45.83870 | 56.07488 | 35764 ft | 371 kts | 223° |
| 2026-04-24 15:37 | 45.79953 | 56.02760 | 35760 ft | 371 kts | 223° |
| 2026-04-24 15:37 | 45.75359 | 55.97230 | 35757 ft | 370 kts | 223° |
| 2026-04-24 15:38 | 45.71413 | 55.92486 | 35760 ft | 370 kts | 223° |
| 2026-04-24 15:38 | 45.67462 | 55.87747 | 35764 ft | 370 kts | 222° |
| 2026-04-24 15:39 | 45.63513 | 55.83019 | 35762 ft | 370 kts | 222° |
| 2026-04-24 15:39 | 45.59592 | 55.78334 | 35763 ft | 370 kts | 223° |
| 2026-04-24 15:40 | 45.55659 | 55.73646 | 35762 ft | 370 kts | 222° |
| 2026-04-24 15:40 | 45.52370 | 55.69730 | 35765 ft | 370 kts | 223° |
| 2026-04-24 15:41 | 45.48434 | 55.65053 | 35764 ft | 370 kts | 223° |
| 2026-04-24 15:41 | 45.43823 | 55.59583 | 35767 ft | 370 kts | 223° |
| 2026-04-24 15:42 | 45.40546 | 55.55703 | 35766 ft | 370 kts | 222° |
| 2026-04-24 15:42 | 45.35927 | 55.50248 | 35767 ft | 369 kts | 223° |
| 2026-04-24 15:43 | 45.31984 | 55.45598 | 35767 ft | 369 kts | 223° |
| 2026-04-24 15:43 | 45.28023 | 55.40937 | 35766 ft | 369 kts | 223° |
| 2026-04-24 15:44 | 45.24080 | 55.36304 | 35768 ft | 370 kts | 223° |
| 2026-04-24 15:44 | 45.20123 | 55.31665 | 35768 ft | 369 kts | 222° |
| 2026-04-24 15:45 | 45.16164 | 55.27033 | 35770 ft | 370 kts | 222° |
| 2026-04-24 15:45 | 45.12218 | 55.22424 | 35769 ft | 369 kts | 222° |
| 2026-04-24 15:46 | 45.08921 | 55.18560 | 35770 ft | 369 kts | 223° |
| 2026-04-24 15:46 | 45.04501 | 55.12858 | 35772 ft | 369 kts | 225° |
| 2026-04-24 15:47 | 45.00728 | 55.07966 | 35773 ft | 369 kts | 225° |
| 2026-04-24 15:47 | 44.96966 | 55.03096 | 35772 ft | 369 kts | 225° |
| 2026-04-24 15:48 | 44.93174 | 54.98194 | 35771 ft | 369 kts | 225° |
| 2026-04-24 15:48 | 44.89405 | 54.93328 | 35774 ft | 369 kts | 225° |
| 2026-04-24 15:49 | 44.85640 | 54.88475 | 35783 ft | 370 kts | 225° |
| 2026-04-24 15:49 | 44.81852 | 54.83600 | 35785 ft | 370 kts | 225° |
| 2026-04-24 15:50 | 44.78725 | 54.79585 | 35780 ft | 369 kts | 225° |
| 2026-04-24 15:50 | 44.74301 | 54.73918 | 35775 ft | 370 kts | 225° |
| 2026-04-24 15:51 | 44.70518 | 54.69078 | 35772 ft | 369 kts | 225° |
| 2026-04-24 15:51 | 44.67500 | 54.64868 | 35772 ft | 368 kts | 229° |
| 2026-04-24 15:52 | 44.64242 | 54.59439 | 35772 ft | 367 kts | 234° |
| 2026-04-24 15:52 | 44.61280 | 54.53600 | 35775 ft | 367 kts | 236° |
| 2026-04-24 15:53 | 44.57884 | 54.46802 | 35776 ft | 367 kts | 236° |
| 2026-04-24 15:53 | 44.55470 | 54.41977 | 35778 ft | 367 kts | 236° |
| 2026-04-24 15:54 | 44.52551 | 54.36142 | 35779 ft | 367 kts | 236° |
| 2026-04-24 15:54 | 44.49623 | 54.30301 | 35779 ft | 367 kts | 235° |
| 2026-04-24 15:55 | 44.46218 | 54.23518 | 35779 ft | 367 kts | 235° |
| 2026-04-24 15:55 | 44.44274 | 54.19655 | 35783 ft | 367 kts | 235° |
| 2026-04-24 15:56 | 44.41342 | 54.13834 | 35779 ft | 367 kts | 235° |
| 2026-04-24 15:56 | 44.37913 | 54.07043 | 35781 ft | 367 kts | 235° |
| 2026-04-24 15:57 | 44.35456 | 54.02188 | 35783 ft | 367 kts | 235° |
| 2026-04-24 15:57 | 44.32032 | 53.95433 | 35785 ft | 367 kts | 235° |
| 2026-04-24 15:58 | 44.29571 | 53.90588 | 35790 ft | 367 kts | 235° |
| 2026-04-24 15:58 | 44.26636 | 53.84822 | 35790 ft | 367 kts | 235° |
| 2026-04-24 15:59 | 44.23192 | 53.78071 | 35793 ft | 367 kts | 236° |
| 2026-04-24 15:59 | 44.20259 | 53.72330 | 35794 ft | 366 kts | 236° |
| 2026-04-24 16:00 | 44.17292 | 53.66535 | 35794 ft | 366 kts | 236° |
| 2026-04-24 16:00 | 44.14337 | 53.60776 | 35794 ft | 367 kts | 235° |
| 2026-04-24 16:01 | 44.11379 | 53.55022 | 35793 ft | 367 kts | 235° |
| 2026-04-24 16:01 | 44.08431 | 53.49299 | 35793 ft | 366 kts | 236° |
| 2026-04-24 16:02 | 44.05473 | 53.43570 | 35796 ft | 366 kts | 236° |
| 2026-04-24 16:02 | 44.02996 | 53.38781 | 35795 ft | 366 kts | 236° |
| 2026-04-24 16:03 | 43.99532 | 53.32095 | 35800 ft | 366 kts | 235° |
| 2026-04-24 16:03 | 43.97060 | 53.27337 | 35799 ft | 366 kts | 235° |
| 2026-04-24 16:04 | 43.94088 | 53.21621 | 35795 ft | 366 kts | 235° |
| 2026-04-24 16:04 | 43.90597 | 53.14930 | 35794 ft | 366 kts | 235° |
| 2026-04-24 16:05 | 43.86130 | 53.06379 | 35798 ft | 366 kts | 235° |
| 2026-04-24 16:06 | 43.82163 | 52.98806 | 35796 ft | 366 kts | 235° |
| 2026-04-24 16:07 | 43.77174 | 52.89322 | 35814 ft | 366 kts | 235° |
| 2026-04-24 16:07 | 43.72677 | 52.80795 | 35821 ft | 366 kts | 235° |
| 2026-04-24 16:08 | 43.68685 | 52.73255 | 35819 ft | 366 kts | 236° |
| 2026-04-24 16:09 | 43.64181 | 52.64767 | 35819 ft | 366 kts | 235° |
| 2026-04-24 16:09 | 43.60675 | 52.58191 | 35816 ft | 366 kts | 235° |
| 2026-04-24 16:11 | 43.53647 | 52.45072 | 35816 ft | 366 kts | 235° |
| 2026-04-24 16:11 | 43.50616 | 52.39431 | 35819 ft | 366 kts | 236° |
| 2026-04-24 16:12 | 43.45596 | 52.30113 | 35823 ft | 366 kts | 235° |
| 2026-04-24 16:13 | 43.41547 | 52.22614 | 35828 ft | 365 kts | 234° |
| 2026-04-24 16:14 | 43.35507 | 52.11470 | 35836 ft | 365 kts | 235° |
| 2026-04-24 16:14 | 43.30452 | 52.02173 | 35835 ft | 365 kts | 235° |
| 2026-04-24 16:15 | 43.26399 | 51.94742 | 35827 ft | 365 kts | 235° |
| 2026-04-24 16:16 | 43.21399 | 51.85596 | 35825 ft | 365 kts | 235° |
| 2026-04-24 16:17 | 43.14534 | 51.73092 | 35830 ft | 365 kts | 235° |
| 2026-04-24 16:18 | 43.08498 | 51.62141 | 35820 ft | 365 kts | 235° |
| 2026-04-24 16:19 | 43.03986 | 51.53983 | 35825 ft | 365 kts | 235° |
| 2026-04-24 16:20 | 42.99064 | 51.45106 | 35825 ft | 364 kts | 235° |
| 2026-04-24 16:20 | 42.94496 | 51.36893 | 35829 ft | 365 kts | 235° |
| 2026-04-24 16:21 | 42.90418 | 51.29578 | 35838 ft | 365 kts | 234° |
| 2026-04-24 16:22 | 42.87382 | 51.24145 | 35846 ft | 365 kts | 235° |
| 2026-04-24 16:22 | 42.82322 | 51.15109 | 35836 ft | 365 kts | 235° |
| 2026-04-24 16:23 | 42.79820 | 51.10650 | 35851 ft | 365 kts | 235° |
| 2026-04-24 16:24 | 42.75256 | 51.02538 | 35853 ft | 365 kts | 235° |
| 2026-04-24 16:24 | 42.72278 | 50.97256 | 35853 ft | 364 kts | 235° |
| 2026-04-24 16:25 | 42.69192 | 50.91794 | 35858 ft | 365 kts | 235° |
| 2026-04-24 16:25 | 42.66128 | 50.86382 | 35858 ft | 364 kts | 235° |
| 2026-04-24 16:26 | 42.61523 | 50.78262 | 35855 ft | 364 kts | 235° |
| 2026-04-24 16:27 | 42.56893 | 50.70123 | 35849 ft | 364 kts | 235° |
| 2026-04-24 16:27 | 42.53813 | 50.64722 | 35862 ft | 364 kts | 235° |
| 2026-04-24 16:28 | 42.50717 | 50.59299 | 35855 ft | 364 kts | 235° |
| 2026-04-24 16:28 | 42.46070 | 50.51186 | 35852 ft | 364 kts | 235° |
| 2026-04-24 16:29 | 42.43025 | 50.45761 | 35850 ft | 363 kts | 237° |
| 2026-04-24 16:30 | 42.37306 | 50.34934 | 35856 ft | 364 kts | 236° |
| 2026-04-24 16:30 | 42.35072 | 50.30718 | 35862 ft | 364 kts | 236° |
| 2026-04-24 16:31 | 42.32399 | 50.25679 | 35866 ft | 364 kts | 236° |
| 2026-04-24 16:31 | 42.29456 | 50.20135 | 35866 ft | 364 kts | 236° |
| 2026-04-24 16:32 | 42.26513 | 50.14608 | 35866 ft | 363 kts | 236° |
| 2026-04-24 16:32 | 42.23588 | 50.09124 | 35869 ft | 364 kts | 236° |
| 2026-04-24 16:33 | 42.20628 | 50.03581 | 35876 ft | 363 kts | 236° |
| 2026-04-24 16:33 | 42.17703 | 49.98114 | 35875 ft | 363 kts | 236° |
| 2026-04-24 16:34 | 42.14739 | 49.92586 | 35875 ft | 363 kts | 236° |
| 2026-04-24 16:34 | 42.11811 | 49.87139 | 35867 ft | 363 kts | 236° |
| 2026-04-24 16:35 | 42.08856 | 49.81646 | 35866 ft | 363 kts | 236° |
| 2026-04-24 16:35 | 42.05906 | 49.76173 | 35872 ft | 363 kts | 236° |
| 2026-04-24 16:36 | 42.02929 | 49.70663 | 35871 ft | 364 kts | 236° |
| 2026-04-24 16:36 | 41.99975 | 49.65199 | 35869 ft | 363 kts | 236° |
| 2026-04-24 16:37 | 41.97032 | 49.59775 | 35865 ft | 364 kts | 236° |
| 2026-04-24 16:37 | 41.94071 | 49.54324 | 35871 ft | 364 kts | 236° |
| 2026-04-24 16:38 | 41.91107 | 49.48873 | 35867 ft | 364 kts | 236° |
| 2026-04-24 16:38 | 41.88130 | 49.43413 | 35877 ft | 364 kts | 236° |
| 2026-04-24 16:39 | 41.85153 | 49.37963 | 35866 ft | 364 kts | 236° |
| 2026-04-24 16:39 | 41.82180 | 49.32531 | 35874 ft | 364 kts | 236° |
| 2026-04-24 16:40 | 41.79317 | 49.26940 | 35870 ft | 363 kts | 238° |
| 2026-04-24 16:40 | 41.76520 | 49.21323 | 35876 ft | 364 kts | 238° |
| 2026-04-24 16:41 | 41.73722 | 49.15711 | 35875 ft | 364 kts | 238° |
| 2026-04-24 16:41 | 41.70925 | 49.10113 | 35870 ft | 364 kts | 238° |
| 2026-04-24 16:42 | 41.68111 | 49.04487 | 35868 ft | 365 kts | 238° |
| 2026-04-24 16:42 | 41.65280 | 48.98838 | 35871 ft | 366 kts | 238° |
| 2026-04-24 16:43 | 41.62453 | 48.93212 | 35869 ft | 365 kts | 238° |
| 2026-04-24 16:43 | 41.59631 | 48.87599 | 35872 ft | 365 kts | 238° |
| 2026-04-24 16:44 | 41.56797 | 48.81980 | 35868 ft | 365 kts | 238° |
| 2026-04-24 16:44 | 41.53988 | 48.76413 | 35873 ft | 364 kts | 238° |
| 2026-04-24 16:45 | 41.51041 | 48.70902 | 35869 ft | 365 kts | 236° |
| 2026-04-24 16:45 | 41.48018 | 48.65477 | 35865 ft | 365 kts | 236° |
| 2026-04-24 16:46 | 41.45043 | 48.60149 | 35869 ft | 365 kts | 236° |
| 2026-04-24 16:46 | 41.42029 | 48.54757 | 35871 ft | 365 kts | 237° |
| 2026-04-24 16:47 | 41.39045 | 48.49267 | 35867 ft | 364 kts | 237° |
| 2026-04-24 16:47 | 41.36097 | 48.43840 | 35872 ft | 364 kts | 237° |
| 2026-04-24 16:48 | 41.33121 | 48.38386 | 35890 ft | 364 kts | 237° |
| 2026-04-24 16:48 | 41.30167 | 48.32984 | 35920 ft | 364 kts | 237° |
| 2026-04-24 16:49 | 41.27207 | 48.27566 | 35961 ft | 364 kts | 236° |
| 2026-04-24 16:49 | 41.24219 | 48.22126 | 35983 ft | 364 kts | 237° |
| 2026-04-24 16:50 | 41.21245 | 48.16716 | 35983 ft | 363 kts | 236° |
| 2026-04-24 16:50 | 41.18341 | 48.11250 | 35984 ft | 362 kts | 242° |
| 2026-04-24 16:51 | 41.16270 | 48.05194 | 35992 ft | 362 kts | 248° |
| 2026-04-24 16:51 | 41.14383 | 47.99036 | 35993 ft | 362 kts | 248° |
| 2026-04-24 16:52 | 41.12488 | 47.92861 | 35996 ft | 362 kts | 249° |
| 2026-04-24 16:52 | 41.10606 | 47.86734 | 35985 ft | 362 kts | 249° |
| 2026-04-24 16:53 | 41.08702 | 47.80558 | 35970 ft | 361 kts | 248° |
| 2026-04-24 16:53 | 41.06807 | 47.74435 | 35970 ft | 362 kts | 249° |
| 2026-04-24 16:54 | 41.04891 | 47.68263 | 35950 ft | 362 kts | 249° |
| 2026-04-24 16:54 | 41.02994 | 47.62159 | 35937 ft | 362 kts | 249° |
| 2026-04-24 16:55 | 41.01073 | 47.55990 | 35925 ft | 361 kts | 249° |
| 2026-04-24 16:55 | 40.98849 | 47.48865 | 35904 ft | 361 kts | 249° |
| 2026-04-24 16:56 | 40.97252 | 47.43766 | 35904 ft | 361 kts | 249° |
| 2026-04-24 16:56 | 40.95320 | 47.37613 | 35908 ft | 361 kts | 249° |
| 2026-04-24 16:57 | 40.93401 | 47.31506 | 35903 ft | 361 kts | 249° |
| 2026-04-24 16:57 | 40.91481 | 47.25415 | 35894 ft | 361 kts | 249° |
| 2026-04-24 16:58 | 40.89550 | 47.19295 | 35896 ft | 361 kts | 249° |
| 2026-04-24 16:58 | 40.87622 | 47.13212 | 35900 ft | 361 kts | 249° |
| 2026-04-24 16:59 | 40.85679 | 47.07088 | 35897 ft | 361 kts | 249° |
| 2026-04-24 17:00 | 40.82782 | 46.97982 | 35883 ft | 361 kts | 249° |
| 2026-04-24 17:00 | 40.79870 | 46.88862 | 35886 ft | 361 kts | 249° |
| 2026-04-24 17:01 | 40.76941 | 46.79712 | 35903 ft | 361 kts | 249° |
| 2026-04-24 17:02 | 40.74011 | 46.70594 | 35899 ft | 361 kts | 249° |
| 2026-04-24 17:02 | 40.72060 | 46.64543 | 35892 ft | 361 kts | 249° |
| 2026-04-24 17:03 | 40.69114 | 46.55420 | 35908 ft | 361 kts | 249° |
| 2026-04-24 17:04 | 40.67161 | 46.49392 | 35906 ft | 361 kts | 249° |
| 2026-04-24 17:04 | 40.64198 | 46.40276 | 35918 ft | 361 kts | 249° |
| 2026-04-24 17:05 | 40.62226 | 46.34227 | 35919 ft | 361 kts | 249° |
| 2026-04-24 17:06 | 40.59286 | 46.25227 | 35924 ft | 361 kts | 248° |
| 2026-04-24 17:06 | 40.56308 | 46.16148 | 35948 ft | 361 kts | 248° |
| 2026-04-24 17:07 | 40.54313 | 46.10078 | 35961 ft | 360 kts | 249° |
| 2026-04-24 17:08 | 40.50346 | 45.98045 | 35983 ft | 361 kts | 249° |
| 2026-04-24 17:08 | 40.48351 | 45.92021 | 35984 ft | 360 kts | 249° |
| 2026-04-24 17:09 | 40.44355 | 45.79989 | 35999 ft | 360 kts | 248° |
| 2026-04-24 17:10 | 40.40457 | 45.67931 | 36006 ft | 359 kts | 252° |
| 2026-04-24 17:12 | 40.36218 | 45.42552 | 36017 ft | 357 kts | 259° |
| 2026-04-24 18:54 | 37.12641 | 33.59367 | 36047 ft | 384 kts | 226° |
| 2026-04-24 18:55 | 37.06760 | 33.52594 | 36045 ft | 385 kts | 225° |
| 2026-04-24 18:56 | 37.02802 | 33.48047 | 36037 ft | 386 kts | 226° |
| 2026-04-24 18:56 | 36.98868 | 33.43533 | 36036 ft | 386 kts | 225° |
| 2026-04-24 18:57 | 36.94909 | 33.38997 | 36035 ft | 387 kts | 225° |
| 2026-04-24 18:57 | 36.91165 | 33.34188 | 36021 ft | 385 kts | 234° |
| 2026-04-24 18:58 | 36.88483 | 33.28446 | 36015 ft | 385 kts | 246° |
| 2026-04-24 18:58 | 36.87018 | 33.22047 | 36011 ft | 387 kts | 259° |
| 2026-04-24 18:59 | 36.86816 | 33.15340 | 36007 ft | 391 kts | 268° |
| 2026-04-24 18:59 | 36.87018 | 33.08566 | 36156 ft | 389 kts | 269° |
| 2026-04-24 18:59 | 36.87125 | 33.05222 | 36433 ft | 385 kts | 269° |
| 2026-04-24 19:00 | 36.87230 | 33.01929 | 37009 ft | 376 kts | 269° |
| 2026-04-24 19:00 | 36.87331 | 32.98664 | 36512 ft | 383 kts | 269° |
| 2026-04-24 19:00 | 36.87432 | 32.95384 | 36179 ft | 382 kts | 269° |
| 2026-04-24 19:00 | 36.87535 | 32.92056 | 36069 ft | 384 kts | 269° |
| 2026-04-24 19:01 | 36.87637 | 32.88713 | 36032 ft | 385 kts | 269° |
| 2026-04-24 19:01 | 36.87838 | 32.82056 | 36015 ft | 385 kts | 269° |
| 2026-04-24 19:02 | 36.88036 | 32.75397 | 36014 ft | 385 kts | 269° |
| 2026-04-24 19:02 | 36.88228 | 32.68743 | 36025 ft | 386 kts | 269° |
| 2026-04-24 19:03 | 36.88417 | 32.62148 | 36023 ft | 376 kts | 269° |
| 2026-04-24 19:03 | 36.88594 | 32.55639 | 36019 ft | 374 kts | 268° |
| 2026-04-24 19:04 | 36.88769 | 32.49209 | 36023 ft | 375 kts | 268° |
| 2026-04-24 19:04 | 36.88951 | 32.42725 | 35694 ft | 375 kts | 269° |
| 2026-04-24 19:04 | 36.89041 | 32.39461 | 35347 ft | 376 kts | 269° |
| 2026-04-24 19:05 | 36.89091 | 32.37637 | 35110 ft | 376 kts | 269° |